Time,TemperatureF,DewpointF,PressureIn,WindDirection,WindDirectionDegrees,WindSpeedMPH,WindSpeedGustMPH,Humidity,HourlyPrecipIn,Conditions,Clouds,dailyrainin,SoftwareType,DateUTC
2013-03-17 00:00:00,31.8,30.3,29.95,ENE,74,0.0,0.0,94,0.00,,,0.00,Wunderground v.1.15,2013-03-17 04:00:00,
2013-03-17 00:04:00,31.9,30.4,29.95,ENE,74,0.0,0.0,94,0.00,,,0.00,Wunderground v.1.15,2013-03-17 04:04:00,
2013-03-17 00:08:00,31.8,30.3,29.94,ENE,74,0.0,3.0,94,0.00,,,0.00,Wunderground v.1.15,2013-03-17 04:08:00,
2013-03-17 00:14:00,32.0,30.5,29.94,ENE,74,1.0,2.0,94,0.00,,,0.00,Wunderground v.1.15,2013-03-17 04:14:00,
2013-03-17 00:20:00,32.0,30.5,29.94,ENE,74,0.0,0.0,94,0.00,,,0.00,Wunderground v.1.15,2013-03-17 04:20:00,
2013-03-17 00:28:00,32.0,30.5,29.94,ENE,74,0.0,3.0,94,0.00,,,0.00,Wunderground v.1.15,2013-03-17 04:28:00,
2013-03-17 00:34:00,31.9,30.4,29.94,ENE,74,1.0,2.0,94,0.00,,,0.00,Wunderground v.1.15,2013-03-17 04:34:00,
2013-03-17 00:40:00,31.9,30.4,29.94,ENE,74,1.0,2.0,94,0.00,,,0.00,Wunderground v.1.15,2013-03-17 04:40:00,
2013-03-17 00:46:00,31.9,30.4,29.94,ENE,73,1.0,2.0,94,0.00,,,0.00,Wunderground v.1.15,2013-03-17 04:46:00,
2013-03-17 00:52:00,31.9,30.4,29.94,ENE,74,2.0,2.0,94,0.00,,,0.00,Wunderground v.1.15,2013-03-17 04:52:00,
2013-03-17 00:58:00,31.9,30.4,29.95,NNW,327,1.0,5.0,94,0.00,,,0.00,Wunderground v.1.15,2013-03-17 04:58:00,
2013-03-17 01:04:00,31.9,30.4,29.95,NNW,327,1.0,1.0,94,0.00,,,0.00,Wunderground v.1.15,2013-03-17 05:04:00,
2013-03-17 01:10:00,31.7,30.2,29.95,NW,306,1.0,3.0,94,0.00,,,0.00,Wunderground v.1.15,2013-03-17 05:10:00,
2013-03-17 01:16:00,31.6,30.1,29.95,NW,306,2.0,4.0,94,0.00,,,0.00,Wunderground v.1.15,2013-03-17 05:16:00,
2013-03-17 01:22:00,31.5,29.7,29.95,NW,306,2.0,5.0,93,0.00,,,0.00,Wunderground v.1.15,2013-03-17 05:22:00,
2013-03-17 01:28:00,31.6,29.5,29.95,WNW,300,3.0,5.0,92,0.00,,,0.00,Wunderground v.1.15,2013-03-17 05:28:00,
2013-03-17 01:34:00,31.7,29.4,29.95,NW,313,3.0,5.0,91,0.00,,,0.00,Wunderground v.1.15,2013-03-17 05:34:00,
2013-03-17 01:40:00,32.6,30.0,29.96,NW,320,6.0,8.0,90,0.00,,,0.00,Wunderground v.1.15,2013-03-17 05:40:00,
2013-03-17 01:48:00,33.9,30.4,29.95,NW,306,6.0,10.0,87,0.00,,,0.00,Wunderground v.1.15,2013-03-17 05:48:00,
2013-03-17 01:54:00,34.3,30.8,29.96,NNW,344,7.0,9.0,87,0.00,,,0.00,Wunderground v.1.15,2013-03-17 05:54:00,
2013-03-17 02:00:00,34.3,30.8,29.96,NW,309,6.0,6.0,87,0.00,,,0.00,Wunderground v.1.15,2013-03-17 06:00:00,
2013-03-17 02:06:00,34.2,30.7,29.97,WNW,292,4.0,8.0,87,0.00,,,0.00,Wunderground v.1.15,2013-03-17 06:06:00,
2013-03-17 02:12:00,34.2,30.7,29.97,WNW,289,4.0,4.0,87,0.00,,,0.00,Wunderground v.1.15,2013-03-17 06:12:00,
2013-03-17 02:18:00,34.0,30.5,29.97,WNW,302,3.0,4.0,87,0.00,,,0.00,Wunderground v.1.15,2013-03-17 06:18:00,
2013-03-17 02:24:00,33.8,30.3,29.97,NNW,336,3.0,7.0,87,0.00,,,0.00,Wunderground v.1.15,2013-03-17 06:24:00,
2013-03-17 02:30:00,33.8,30.3,29.97,NW,307,4.0,4.0,87,0.00,,,0.00,Wunderground v.1.15,2013-03-17 06:30:00,
2013-03-17 02:38:00,34.2,30.4,29.98,West,263,5.0,8.0,86,0.00,,,0.00,Wunderground v.1.15,2013-03-17 06:38:00,
2013-03-17 02:44:00,34.3,30.5,29.98,West,273,5.0,6.0,86,0.00,,,0.00,Wunderground v.1.15,2013-03-17 06:44:00,
2013-03-17 02:50:00,34.3,30.5,29.98,NW,306,3.0,4.0,86,0.00,,,0.00,Wunderground v.1.15,2013-03-17 06:50:00,
2013-03-17 02:56:00,34.3,30.3,29.98,WNW,301,3.0,4.0,85,0.00,,,0.00,Wunderground v.1.15,2013-03-17 06:56:00,
2013-03-17 03:02:00,34.2,29.9,29.98,WNW,285,4.0,5.0,84,0.00,,,0.00,Wunderground v.1.15,2013-03-17 07:02:00,
2013-03-17 03:08:00,34.1,29.5,29.98,West,281,5.0,6.0,83,0.00,,,0.00,Wunderground v.1.15,2013-03-17 07:08:00,
2013-03-17 03:14:00,34.0,29.1,29.98,West,275,5.0,10.0,82,0.00,,,0.00,Wunderground v.1.15,2013-03-17 07:14:00,
2013-03-17 03:20:00,34.1,29.2,29.99,NW,314,6.0,10.0,82,0.00,,,0.00,Wunderground v.1.15,2013-03-17 07:20:00,
2013-03-17 03:26:00,34.1,29.2,29.99,West,281,6.0,10.0,82,0.00,,,0.00,Wunderground v.1.15,2013-03-17 07:26:00,
2013-03-17 03:32:00,34.1,29.2,29.99,WNW,302,5.0,5.0,82,0.00,,,0.00,Wunderground v.1.15,2013-03-17 07:32:00,
2013-03-17 03:38:00,34.0,29.1,29.99,NNW,327,4.0,5.0,82,0.00,,,0.00,Wunderground v.1.15,2013-03-17 07:38:00,
2013-03-17 03:44:00,34.0,28.8,29.99,NW,317,4.0,5.0,81,0.00,,,0.00,Wunderground v.1.15,2013-03-17 07:44:00,
2013-03-17 03:50:00,33.8,28.9,29.99,NNW,330,4.0,5.0,82,0.00,,,0.00,Wunderground v.1.15,2013-03-17 07:50:00,
2013-03-17 03:56:00,33.7,29.1,29.99,NNW,327,4.0,5.0,83,0.00,,,0.00,Wunderground v.1.15,2013-03-17 07:56:00,
2013-03-17 04:04:00,33.5,28.9,29.99,NNW,329,4.0,7.0,83,0.00,,,0.00,Wunderground v.1.15,2013-03-17 08:04:00,
2013-03-17 04:10:00,33.3,29.0,29.99,NW,319,6.0,6.0,84,0.00,,,0.00,Wunderground v.1.15,2013-03-17 08:10:00,
2013-03-17 04:16:00,33.0,28.7,29.99,NW,317,5.0,6.0,84,0.00,,,0.00,Wunderground v.1.15,2013-03-17 08:16:00,
2013-03-17 04:22:00,32.9,28.6,29.99,NW,317,4.0,7.0,84,0.00,,,0.00,Wunderground v.1.15,2013-03-17 08:22:00,
2013-03-17 04:28:00,33.2,28.6,30.00,NNW,336,5.0,7.0,83,0.00,,,0.00,Wunderground v.1.15,2013-03-17 08:28:00,
2013-03-17 04:34:00,33.2,28.6,30.00,NNW,327,5.0,6.0,83,0.00,,,0.00,Wunderground v.1.15,2013-03-17 08:34:00,
2013-03-17 04:40:00,33.2,28.3,30.00,NW,318,6.0,6.0,82,0.00,,,0.00,Wunderground v.1.15,2013-03-17 08:40:00,
2013-03-17 04:46:00,33.2,28.3,30.00,WNW,300,7.0,11.0,82,0.00,,,0.00,Wunderground v.1.15,2013-03-17 08:46:00,
2013-03-17 04:52:00,33.3,28.1,30.00,WNW,298,7.0,7.0,81,0.00,,,0.00,Wunderground v.1.15,2013-03-17 08:52:00,
2013-03-17 04:58:00,33.2,28.0,30.01,NW,314,5.0,8.0,81,0.00,,,0.00,Wunderground v.1.15,2013-03-17 08:58:00,
2013-03-17 05:04:00,33.1,28.2,30.01,NW,306,7.0,8.0,82,0.00,,,0.00,Wunderground v.1.15,2013-03-17 09:04:00,
2013-03-17 05:10:00,33.1,27.9,30.01,WNW,300,6.0,6.0,81,0.00,,,0.00,Wunderground v.1.15,2013-03-17 09:10:00,
2013-03-17 05:18:00,33.1,27.9,30.02,NW,308,6.0,9.0,81,0.00,,,0.00,Wunderground v.1.15,2013-03-17 09:18:00,
2013-03-17 05:24:00,33.1,27.6,30.02,NNW,335,6.0,6.0,80,0.00,,,0.00,Wunderground v.1.15,2013-03-17 09:24:00,
2013-03-17 05:30:00,33.0,27.5,30.03,WNW,291,6.0,6.0,80,0.00,,,0.00,Wunderground v.1.15,2013-03-17 09:30:00,
2013-03-17 05:38:00,33.0,27.2,30.03,WNW,296,7.0,7.0,79,0.00,,,0.00,Wunderground v.1.15,2013-03-17 09:38:00,
2013-03-17 05:44:00,33.0,27.5,30.04,North,355,7.0,9.0,80,0.00,,,0.00,Wunderground v.1.15,2013-03-17 09:44:00,
2013-03-17 05:50:00,32.9,27.7,30.04,NNW,336,6.0,6.0,81,0.00,,,0.00,Wunderground v.1.15,2013-03-17 09:50:00,
2013-03-17 05:56:00,32.5,27.3,30.04,WNW,302,7.0,12.0,81,0.00,,,0.00,Wunderground v.1.15,2013-03-17 09:56:00,
2013-03-17 06:02:00,32.0,26.5,30.05,NW,313,10.0,14.0,80,0.00,,,0.00,Wunderground v.1.15,2013-03-17 10:02:00,
2013-03-17 06:08:00,31.8,26.3,30.06,NNW,335,8.0,14.0,80,0.00,,,0.00,Wunderground v.1.15,2013-03-17 10:08:00,
2013-03-17 06:14:00,31.7,26.2,30.06,NNW,340,6.0,10.0,80,0.00,,,0.00,Wunderground v.1.15,2013-03-17 10:14:00,
2013-03-17 06:20:00,31.5,26.3,30.06,NNW,343,7.0,12.0,81,0.00,,,0.00,Wunderground v.1.15,2013-03-17 10:20:00,
2013-03-17 06:26:00,31.1,26.0,30.07,NNW,337,8.0,12.0,81,0.00,,,0.00,Wunderground v.1.15,2013-03-17 10:26:00,
2013-03-17 06:32:00,30.8,26.0,30.07,NNW,342,7.0,7.0,82,0.00,,,0.00,Wunderground v.1.15,2013-03-17 10:32:00,
2013-03-17 06:38:00,30.7,25.3,30.07,North,5,6.0,9.0,80,0.00,,,0.00,Wunderground v.1.15,2013-03-17 10:38:00,
2013-03-17 06:44:00,30.6,25.5,30.08,North,5,6.0,8.0,81,0.00,,,0.00,Wunderground v.1.15,2013-03-17 10:44:00,
2013-03-17 06:50:00,30.4,25.0,30.08,NNW,336,7.0,7.0,80,0.00,,,0.00,Wunderground v.1.15,2013-03-17 10:50:00,
2013-03-17 06:56:00,30.3,24.6,30.08,NNE,13,8.0,9.0,79,0.00,,,0.00,Wunderground v.1.15,2013-03-17 10:56:00,
2013-03-17 07:02:00,30.2,25.1,30.09,NNE,28,6.0,7.0,81,0.00,,,0.00,Wunderground v.1.15,2013-03-17 11:02:00,
2013-03-17 07:08:00,29.8,24.4,30.09,NNE,12,9.0,17.0,80,0.00,,,0.00,Wunderground v.1.15,2013-03-17 11:08:00,
2013-03-17 07:14:00,29.5,24.4,30.10,North,355,10.0,10.0,81,0.00,,,0.00,Wunderground v.1.15,2013-03-17 11:14:00,
2013-03-17 07:20:00,29.2,23.8,30.11,North,360,8.0,8.0,80,0.00,,,0.00,Wunderground v.1.15,2013-03-17 11:20:00,
2013-03-17 07:26:00,29.1,23.7,30.12,NNW,331,7.0,10.0,80,0.00,,,0.00,Wunderground v.1.15,2013-03-17 11:26:00,
2013-03-17 07:32:00,28.9,23.2,30.13,North,10,8.0,9.0,79,0.00,,,0.00,Wunderground v.1.15,2013-03-17 11:32:00,
2013-03-17 07:38:00,28.8,23.1,30.13,NW,323,6.0,9.0,79,0.00,,,0.00,Wunderground v.1.15,2013-03-17 11:38:00,
2013-03-17 07:44:00,28.7,23.0,30.14,NW,326,4.0,6.0,79,0.00,,,0.00,Wunderground v.1.15,2013-03-17 11:44:00,
2013-03-17 07:50:00,28.7,22.7,30.14,North,355,5.0,5.0,78,0.00,,,0.00,Wunderground v.1.15,2013-03-17 11:50:00,
2013-03-17 07:56:00,28.7,22.4,30.14,NW,311,4.0,5.0,77,0.00,,,0.00,Wunderground v.1.15,2013-03-17 11:56:00,
2013-03-17 08:02:00,28.6,22.0,30.14,NNW,331,5.0,7.0,76,0.00,,,0.00,Wunderground v.1.15,2013-03-17 12:02:00,
2013-03-17 08:08:00,28.6,22.6,30.15,North,9,6.0,8.0,78,0.00,,,0.00,Wunderground v.1.15,2013-03-17 12:08:00,
2013-03-17 08:14:00,28.4,21.8,30.15,North,9,8.0,10.0,76,0.00,,,0.00,Wunderground v.1.15,2013-03-17 12:14:00,
2013-03-17 08:20:00,28.3,21.7,30.15,NNE,14,7.0,7.0,76,0.00,,,0.00,Wunderground v.1.15,2013-03-17 12:20:00,
2013-03-17 08:26:00,28.2,21.9,30.15,NNE,15,4.0,7.0,77,0.00,,,0.00,Wunderground v.1.15,2013-03-17 12:26:00,
2013-03-17 08:32:00,28.2,21.9,30.16,NNE,15,2.0,4.0,77,0.00,,,0.00,Wunderground v.1.15,2013-03-17 12:32:00,
2013-03-17 08:38:00,28.3,22.0,30.16,NNE,15,2.0,4.0,77,0.00,,,0.00,Wunderground v.1.15,2013-03-17 12:38:00,
2013-03-17 08:44:00,28.3,21.7,30.18,NNE,15,1.0,2.0,76,0.00,,,0.00,Wunderground v.1.15,2013-03-17 12:44:00,
2013-03-17 08:50:00,28.4,22.4,30.18,North,5,1.0,2.0,78,0.00,,,0.00,Wunderground v.1.15,2013-03-17 12:50:00,
2013-03-17 08:58:00,28.6,22.3,30.17,North,9,2.0,3.0,77,0.00,,,0.00,Wunderground v.1.15,2013-03-17 12:58:00,
2013-03-17 09:04:00,28.7,22.4,30.17,North,9,2.0,2.0,77,0.00,,,0.00,Wunderground v.1.15,2013-03-17 13:04:00,
2013-03-17 09:10:00,28.9,22.6,30.17,North,9,1.0,1.0,77,0.00,,,0.00,Wunderground v.1.15,2013-03-17 13:10:00,
2013-03-17 09:16:00,29.0,23.0,30.17,North,9,1.0,5.0,78,0.00,,,0.00,Wunderground v.1.15,2013-03-17 13:16:00,
2013-03-17 09:22:00,29.2,22.9,30.17,NNE,19,3.0,4.0,77,0.00,,,0.00,Wunderground v.1.15,2013-03-17 13:22:00,
2013-03-17 09:28:00,29.2,22.9,30.17,NNE,19,3.0,4.0,77,0.00,,,0.00,Wunderground v.1.15,2013-03-17 13:28:00,
2013-03-17 09:34:00,29.3,23.0,30.17,North,355,1.0,5.0,77,0.00,,,0.00,Wunderground v.1.15,2013-03-17 13:34:00,
2013-03-17 09:40:00,29.3,22.7,30.18,North,9,3.0,7.0,76,0.00,,,0.00,Wunderground v.1.15,2013-03-17 13:40:00,
2013-03-17 09:46:00,29.3,23.0,30.17,NE,42,4.0,7.0,77,0.00,,,0.00,Wunderground v.1.15,2013-03-17 13:46:00,
2013-03-17 09:52:00,29.2,22.6,30.17,NE,38,4.0,5.0,76,0.00,,,0.00,Wunderground v.1.15,2013-03-17 13:52:00,
2013-03-17 09:58:00,29.2,22.9,30.17,NE,38,5.0,5.0,77,0.00,,,0.00,Wunderground v.1.15,2013-03-17 13:58:00,
2013-03-17 10:04:00,29.2,22.9,30.17,NE,44,4.0,4.0,77,0.00,,,0.00,Wunderground v.1.15,2013-03-17 14:04:00,
2013-03-17 10:10:00,29.2,23.2,30.17,ENE,63,3.0,4.0,78,0.00,,,0.00,Wunderground v.1.15,2013-03-17 14:10:00,
2013-03-17 10:16:00,29.3,23.0,30.17,NE,40,4.0,4.0,77,0.00,,,0.00,Wunderground v.1.15,2013-03-17 14:16:00,
2013-03-17 10:22:00,29.5,23.2,30.18,NNE,25,3.0,3.0,77,0.00,,,0.00,Wunderground v.1.15,2013-03-17 14:22:00,
2013-03-17 10:28:00,29.8,23.5,30.18,NNE,25,1.0,3.0,77,0.00,,,0.00,Wunderground v.1.15,2013-03-17 14:28:00,
2013-03-17 10:34:00,30.1,23.4,30.18,NNE,28,1.0,4.0,76,0.00,,,0.00,Wunderground v.1.15,2013-03-17 14:34:00,
2013-03-17 10:40:00,30.2,23.2,30.19,NNE,28,1.0,1.0,75,0.00,,,0.00,Wunderground v.1.15,2013-03-17 14:40:00,
2013-03-17 10:48:00,30.6,23.3,30.19,NNE,28,0.0,1.0,74,0.00,,,0.00,Wunderground v.1.15,2013-03-17 14:48:00,
2013-03-17 10:54:00,31.0,23.7,30.19,NE,43,0.0,1.0,74,0.00,,,0.00,Wunderground v.1.15,2013-03-17 14:54:00,
2013-03-17 11:00:00,31.0,23.4,30.19,ENE,65,0.0,0.0,73,0.00,,,0.00,Wunderground v.1.15,2013-03-17 15:00:00,
2013-03-17 11:08:00,31.6,24.3,30.19,SE,146,1.0,3.0,74,0.00,,,0.00,Wunderground v.1.15,2013-03-17 15:08:00,
2013-03-17 11:14:00,31.9,24.6,30.19,SE,146,1.0,1.0,74,0.00,,,0.00,Wunderground v.1.15,2013-03-17 15:14:00,
2013-03-17 11:20:00,32.0,24.6,30.19,SE,146,1.0,1.0,74,0.00,,,0.00,Wunderground v.1.15,2013-03-17 15:20:00,
2013-03-17 11:26:00,31.7,23.0,30.19,SE,142,1.0,1.0,70,0.00,,,0.00,Wunderground v.1.15,2013-03-17 15:26:00,
2013-03-17 11:32:00,32.1,23.8,30.20,SSE,157,1.0,1.0,71,0.00,,,0.00,Wunderground v.1.15,2013-03-17 15:32:00,
2013-03-17 11:38:00,31.7,23.4,30.20,NNW,329,2.0,6.0,71,0.00,,,0.01,Wunderground v.1.15,2013-03-17 15:38:00,
2013-03-17 11:44:00,31.4,23.1,30.20,NNW,333,2.0,3.0,71,0.00,,,0.01,Wunderground v.1.15,2013-03-17 15:44:00,
2013-03-17 11:50:00,31.5,23.2,30.20,NNW,333,1.0,1.0,71,0.00,,,0.01,Wunderground v.1.15,2013-03-17 15:50:00,
2013-03-17 11:56:00,31.6,23.3,30.20,NNW,336,1.0,1.0,71,0.00,,,0.01,Wunderground v.1.15,2013-03-17 15:56:00,
2013-03-17 12:02:00,31.9,23.2,30.20,NNW,337,1.0,4.0,70,0.00,,,0.01,Wunderground v.1.15,2013-03-17 16:02:00,
2013-03-17 12:08:00,32.5,24.1,30.20,WNW,294,1.0,4.0,71,0.00,,,0.01,Wunderground v.1.15,2013-03-17 16:08:00,
2013-03-17 12:14:00,32.5,24.5,30.20,NNW,335,3.0,4.0,72,0.00,,,0.01,Wunderground v.1.15,2013-03-17 16:14:00,
2013-03-17 12:20:00,32.3,23.6,30.19,NW,313,3.0,3.0,70,0.00,,,0.01,Wunderground v.1.15,2013-03-17 16:20:00,
2013-03-17 12:26:00,32.3,23.9,30.19,North,360,3.0,4.0,71,0.00,,,0.01,Wunderground v.1.15,2013-03-17 16:26:00,
2013-03-17 12:34:00,32.4,23.7,30.19,NNE,19,4.0,4.0,70,0.00,,,0.01,Wunderground v.1.15,2013-03-17 16:34:00,
2013-03-17 12:40:00,33.1,25.7,30.20,North,9,5.0,6.0,74,0.00,,,0.01,Wunderground v.1.15,2013-03-17 16:40:00,
2013-03-17 12:48:00,32.8,23.0,30.20,NW,314,5.0,6.0,67,0.00,,,0.01,Wunderground v.1.15,2013-03-17 16:48:00,
2013-03-17 12:54:00,33.2,24.5,30.19,NW,315,5.0,5.0,70,0.00,,,0.01,Wunderground v.1.15,2013-03-17 16:54:00,
2013-03-17 13:00:00,32.9,24.2,30.19,NNE,32,5.0,5.0,70,0.00,,,0.01,Wunderground v.1.15,2013-03-17 17:00:00,
2013-03-17 13:06:00,33.0,24.6,30.19,North,360,5.0,7.0,71,0.00,,,0.01,Wunderground v.1.15,2013-03-17 17:06:00,
2013-03-17 13:12:00,32.8,24.1,30.19,NNE,12,4.0,7.0,70,0.00,,,0.01,Wunderground v.1.15,2013-03-17 17:12:00,
2013-03-17 13:18:00,32.9,24.5,30.19,NNE,33,4.0,7.0,71,0.00,,,0.01,Wunderground v.1.15,2013-03-17 17:18:00,
2013-03-17 13:24:00,33.2,25.5,30.19,NNE,15,5.0,7.0,73,0.00,,,0.01,Wunderground v.1.15,2013-03-17 17:24:00,
2013-03-17 13:30:00,33.1,24.0,30.19,ENE,62,4.0,4.0,69,0.00,,,0.01,Wunderground v.1.15,2013-03-17 17:30:00,
2013-03-17 13:36:00,33.3,24.9,30.19,NNE,18,4.0,4.0,71,0.00,,,0.01,Wunderground v.1.15,2013-03-17 17:36:00,
2013-03-17 13:42:00,33.2,24.5,30.19,NNE,24,4.0,6.0,70,0.00,,,0.01,Wunderground v.1.15,2013-03-17 17:42:00,
2013-03-17 13:48:00,33.5,25.4,30.19,North,11,4.0,6.0,72,0.00,,,0.01,Wunderground v.1.15,2013-03-17 17:48:00,
2013-03-17 13:54:00,33.6,25.5,30.19,NW,316,5.0,8.0,72,0.00,,,0.01,Wunderground v.1.15,2013-03-17 17:54:00,
2013-03-17 14:00:00,33.7,25.0,30.18,NE,34,5.0,5.0,70,0.00,,,0.01,Wunderground v.1.15,2013-03-17 18:00:00,
2013-03-17 14:08:00,33.9,25.1,30.19,North,355,4.0,5.0,70,0.00,,,0.01,Wunderground v.1.15,2013-03-17 18:08:00,
2013-03-17 14:14:00,33.8,25.7,30.18,North,5,5.0,6.0,72,0.00,,,0.01,Wunderground v.1.15,2013-03-17 18:14:00,
2013-03-17 14:20:00,33.6,24.9,30.18,NNE,16,6.0,6.0,70,0.00,,,0.02,Wunderground v.1.15,2013-03-17 18:20:00,
2013-03-17 14:26:00,33.5,25.1,30.18,NNE,18,5.0,6.0,71,0.00,,,0.02,Wunderground v.1.15,2013-03-17 18:26:00,
2013-03-17 14:32:00,33.5,25.1,30.18,NE,34,4.0,4.0,71,0.00,,,0.02,Wunderground v.1.15,2013-03-17 18:32:00,
2013-03-17 14:38:00,33.7,25.6,30.19,North,360,4.0,7.0,72,0.00,,,0.02,Wunderground v.1.15,2013-03-17 18:38:00,
2013-03-17 14:44:00,33.5,24.8,30.18,North,11,5.0,9.0,70,0.00,,,0.02,Wunderground v.1.15,2013-03-17 18:44:00,
2013-03-17 14:50:00,33.5,25.4,30.18,North,5,5.0,6.0,72,0.00,,,0.02,Wunderground v.1.15,2013-03-17 18:50:00,
2013-03-17 14:56:00,33.9,26.2,30.18,NNE,23,4.0,6.0,73,0.00,,,0.02,Wunderground v.1.15,2013-03-17 18:56:00,
2013-03-17 15:02:00,33.8,25.7,30.18,NNE,23,5.0,7.0,72,0.00,,,0.02,Wunderground v.1.15,2013-03-17 19:02:00,
2013-03-17 15:08:00,33.8,25.7,30.18,NNE,24,7.0,7.0,72,0.00,,,0.02,Wunderground v.1.15,2013-03-17 19:08:00,
2013-03-17 15:14:00,33.9,25.5,30.18,North,355,6.0,8.0,71,0.00,,,0.02,Wunderground v.1.15,2013-03-17 19:14:00,
2013-03-17 15:20:00,34.2,26.4,30.18,NNE,24,5.0,5.0,73,0.00,,,0.02,Wunderground v.1.15,2013-03-17 19:20:00,
2013-03-17 15:28:00,34.2,25.8,30.18,North,11,5.0,8.0,71,0.00,,,0.02,Wunderground v.1.15,2013-03-17 19:28:00,
2013-03-17 15:34:00,34.4,26.3,30.18,NNW,345,6.0,6.0,72,0.00,,,0.02,Wunderground v.1.15,2013-03-17 19:34:00,
2013-03-17 15:40:00,34.4,25.6,30.18,NNE,28,5.0,7.0,70,0.00,,,0.02,Wunderground v.1.15,2013-03-17 19:40:00,
2013-03-17 15:46:00,34.7,26.6,30.18,NE,37,6.0,7.0,72,0.00,,,0.02,Wunderground v.1.15,2013-03-17 19:46:00,
2013-03-17 15:52:00,35.0,26.9,30.18,North,10,5.0,9.0,72,0.00,,,0.02,Wunderground v.1.15,2013-03-17 19:52:00,
2013-03-17 15:58:00,34.8,25.0,30.19,NW,321,5.0,9.0,67,0.00,,,0.02,Wunderground v.1.15,2013-03-17 19:58:00,
2013-03-17 16:04:00,34.8,25.7,30.19,NNW,329,3.0,5.0,69,0.00,,,0.02,Wunderground v.1.15,2013-03-17 20:04:00,
2013-03-17 16:10:00,34.7,25.9,30.19,NNE,32,4.0,4.0,70,0.00,,,0.02,Wunderground v.1.15,2013-03-17 20:10:00,
2013-03-17 16:16:00,34.5,25.0,30.19,NNE,30,5.0,5.0,68,0.00,,,0.02,Wunderground v.1.15,2013-03-17 20:16:00,
2013-03-17 16:22:00,34.7,25.9,30.19,NNE,19,5.0,7.0,70,0.00,,,0.02,Wunderground v.1.15,2013-03-17 20:22:00,
2013-03-17 16:28:00,34.6,25.8,30.19,NNE,26,6.0,10.0,70,0.00,,,0.02,Wunderground v.1.15,2013-03-17 20:28:00,
2013-03-17 16:34:00,34.3,25.2,30.19,NE,48,6.0,6.0,69,0.00,,,0.02,Wunderground v.1.15,2013-03-17 20:34:00,
2013-03-17 16:40:00,34.3,25.5,30.19,NE,55,5.0,5.0,70,0.00,,,0.02,Wunderground v.1.15,2013-03-17 20:40:00,
2013-03-17 16:46:00,34.6,25.8,30.19,NE,34,4.0,5.0,70,0.00,,,0.02,Wunderground v.1.15,2013-03-17 20:46:00,
2013-03-17 16:52:00,34.6,25.5,30.19,North,9,5.0,5.0,69,0.00,,,0.02,Wunderground v.1.15,2013-03-17 20:52:00,
2013-03-17 16:58:00,34.6,25.5,30.19,NNE,30,6.0,8.0,69,0.00,,,0.02,Wunderground v.1.15,2013-03-17 20:58:00,
2013-03-17 17:04:00,34.6,24.8,30.19,NNW,344,5.0,5.0,67,0.00,,,0.02,Wunderground v.1.15,2013-03-17 21:04:00,
2013-03-17 17:10:00,34.5,24.7,30.19,North,360,3.0,3.0,67,0.00,,,0.02,Wunderground v.1.15,2013-03-17 21:10:00,
2013-03-17 17:16:00,34.8,25.7,30.19,North,9,3.0,4.0,69,0.00,,,0.02,Wunderground v.1.15,2013-03-17 21:16:00,
2013-03-17 17:22:00,34.7,24.9,30.19,NE,34,4.0,9.0,67,0.00,,,0.02,Wunderground v.1.15,2013-03-17 21:22:00,
2013-03-17 17:28:00,34.6,25.8,30.19,North,9,5.0,9.0,70,0.00,,,0.02,Wunderground v.1.15,2013-03-17 21:28:00,
2013-03-17 17:34:00,34.6,26.2,30.20,NNE,30,5.0,6.0,71,0.00,,,0.02,Wunderground v.1.15,2013-03-17 21:34:00,
2013-03-17 17:40:00,34.6,25.8,30.20,NE,48,3.0,3.0,70,0.00,,,0.02,Wunderground v.1.15,2013-03-17 21:40:00,
2013-03-17 17:48:00,34.4,24.9,30.20,NNE,33,4.0,6.0,68,0.00,,,0.02,Wunderground v.1.15,2013-03-17 21:48:00,
2013-03-17 17:54:00,34.4,25.3,30.20,North,11,5.0,5.0,69,0.00,,,0.02,Wunderground v.1.15,2013-03-17 21:54:00,
2013-03-17 18:00:00,34.3,25.5,30.20,NE,38,4.0,4.0,70,0.00,,,0.02,Wunderground v.1.15,2013-03-17 22:00:00,
2013-03-17 18:08:00,34.3,25.2,30.20,North,11,3.0,4.0,69,0.00,,,0.02,Wunderground v.1.15,2013-03-17 22:08:00,
2013-03-17 18:14:00,34.2,25.1,30.20,NNE,19,3.0,5.0,69,0.00,,,0.02,Wunderground v.1.15,2013-03-17 22:14:00,
2013-03-17 18:20:00,34.1,24.6,30.21,NE,50,3.0,3.0,68,0.00,,,0.02,Wunderground v.1.15,2013-03-17 22:20:00,
2013-03-17 18:26:00,34.0,24.9,30.21,NE,48,4.0,5.0,69,0.00,,,0.02,Wunderground v.1.15,2013-03-17 22:26:00,
2013-03-17 18:32:00,33.9,24.8,30.21,NE,36,4.0,6.0,69,0.00,,,0.02,Wunderground v.1.15,2013-03-17 22:32:00,
2013-03-17 18:38:00,33.8,24.7,30.21,NE,43,4.0,6.0,69,0.00,,,0.02,Wunderground v.1.15,2013-03-17 22:38:00,
2013-03-17 18:44:00,33.7,24.6,30.21,NNE,19,4.0,5.0,69,0.00,,,0.02,Wunderground v.1.15,2013-03-17 22:44:00,
2013-03-17 18:50:00,33.5,25.1,30.21,NNE,19,4.0,4.0,71,0.00,,,0.02,Wunderground v.1.15,2013-03-17 22:50:00,
2013-03-17 18:58:00,33.3,24.6,30.21,NNE,19,3.0,4.0,70,0.00,,,0.02,Wunderground v.1.15,2013-03-17 22:58:00,
2013-03-17 19:04:00,33.2,24.5,30.22,NE,46,3.0,4.0,70,0.00,,,0.02,Wunderground v.1.15,2013-03-17 23:04:00,
2013-03-17 19:10:00,33.0,25.0,30.22,NE,46,2.0,3.0,72,0.00,,,0.02,Wunderground v.1.15,2013-03-17 23:10:00,
2013-03-17 19:16:00,32.9,24.5,30.22,NE,46,3.0,4.0,71,0.00,,,0.02,Wunderground v.1.15,2013-03-17 23:16:00,
2013-03-17 19:22:00,32.8,24.4,30.22,NE,46,3.0,3.0,71,0.00,,,0.02,Wunderground v.1.15,2013-03-17 23:22:00,
2013-03-17 19:28:00,32.6,24.2,30.22,NE,46,3.0,3.0,71,0.00,,,0.02,Wunderground v.1.15,2013-03-17 23:28:00,
2013-03-17 19:34:00,32.5,24.1,30.22,NE,46,3.0,4.0,71,0.00,,,0.02,Wunderground v.1.15,2013-03-17 23:34:00,
2013-03-17 19:40:00,32.3,24.3,30.23,NE,46,3.0,3.0,72,0.00,,,0.02,Wunderground v.1.15,2013-03-17 23:40:00,
2013-03-17 20:02:00,31.7,25.0,30.23,NE,46,0.0,0.0,76,0.00,,,0.02,Wunderground v.1.15,2013-03-18 00:02:00,
2013-03-17 20:08:00,31.5,25.1,30.23,NE,46,0.0,0.0,77,0.00,,,0.02,Wunderground v.1.15,2013-03-18 00:08:00,
2013-03-17 20:14:00,31.3,25.2,30.24,NE,46,0.0,0.0,78,0.00,,,0.02,Wunderground v.1.15,2013-03-18 00:14:00,
2013-03-17 20:20:00,31.0,25.6,30.24,NE,46,1.0,1.0,80,0.00,,,0.02,Wunderground v.1.15,2013-03-18 00:20:00,
2013-03-17 20:28:00,30.7,25.6,30.24,NE,46,1.0,1.0,81,0.00,,,0.02,Wunderground v.1.15,2013-03-18 00:28:00,
2013-03-17 20:34:00,30.6,25.5,30.24,NE,46,1.0,2.0,81,0.00,,,0.02,Wunderground v.1.15,2013-03-18 00:34:00,
2013-03-17 20:40:00,30.4,25.3,30.24,NE,46,1.0,1.0,81,0.00,,,0.02,Wunderground v.1.15,2013-03-18 00:40:00,
2013-03-17 20:46:00,30.1,25.3,30.24,NE,46,1.0,2.0,82,0.00,,,0.02,Wunderground v.1.15,2013-03-18 00:46:00,
2013-03-17 20:52:00,30.0,25.2,30.25,NE,46,2.0,5.0,82,0.00,,,0.02,Wunderground v.1.15,2013-03-18 00:52:00,
2013-03-17 20:58:00,30.4,25.0,30.25,NNE,30,4.0,6.0,80,0.00,,,0.02,Wunderground v.1.15,2013-03-18 00:58:00,
2013-03-17 21:04:00,30.8,25.1,30.25,NNE,30,7.0,9.0,79,0.00,,,0.02,Wunderground v.1.15,2013-03-18 01:04:00,
2013-03-17 21:10:00,31.0,24.6,30.24,NE,34,6.0,6.0,77,0.00,,,0.02,Wunderground v.1.15,2013-03-18 01:10:00,
2013-03-17 21:16:00,31.0,24.6,30.25,NE,42,4.0,6.0,77,0.00,,,0.02,Wunderground v.1.15,2013-03-18 01:16:00,
2013-03-17 21:22:00,31.0,24.3,30.25,NE,39,2.0,4.0,76,0.00,,,0.02,Wunderground v.1.15,2013-03-18 01:22:00,
2013-03-17 21:28:00,31.1,24.4,30.25,NE,36,3.0,4.0,76,0.00,,,0.02,Wunderground v.1.15,2013-03-18 01:28:00,
2013-03-17 21:34:00,31.1,24.4,30.24,NE,50,2.0,3.0,76,0.00,,,0.02,Wunderground v.1.15,2013-03-18 01:34:00,
2013-03-17 21:40:00,31.0,24.6,30.25,NE,50,2.0,2.0,77,0.00,,,0.02,Wunderground v.1.15,2013-03-18 01:40:00,
2013-03-17 21:46:00,30.9,24.5,30.24,NE,55,2.0,2.0,77,0.00,,,0.02,Wunderground v.1.15,2013-03-18 01:46:00,
2013-03-17 21:52:00,30.7,24.3,30.25,NE,54,3.0,3.0,77,0.00,,,0.02,Wunderground v.1.15,2013-03-18 01:52:00,
2013-03-17 21:58:00,30.5,24.5,30.25,NE,54,2.0,4.0,78,0.00,,,0.02,Wunderground v.1.15,2013-03-18 01:58:00,
2013-03-17 22:04:00,30.5,24.5,30.25,ENE,68,2.0,3.0,78,0.00,,,0.02,Wunderground v.1.15,2013-03-18 02:04:00,
2013-03-17 22:10:00,30.5,24.1,30.25,ENE,68,2.0,2.0,77,0.00,,,0.02,Wunderground v.1.15,2013-03-18 02:10:00,
2013-03-17 22:16:00,30.5,23.8,30.25,ENE,69,2.0,2.0,76,0.00,,,0.02,Wunderground v.1.15,2013-03-18 02:16:00,
2013-03-17 22:22:00,30.6,23.9,30.25,ENE,69,1.0,2.0,76,0.00,,,0.02,Wunderground v.1.15,2013-03-18 02:22:00,
2013-03-17 22:28:00,30.3,24.0,30.25,ENE,69,1.0,2.0,77,0.00,,,0.02,Wunderground v.1.15,2013-03-18 02:28:00,
2013-03-17 22:34:00,30.0,24.0,30.26,ENE,69,0.0,1.0,78,0.00,,,0.02,Wunderground v.1.15,2013-03-18 02:34:00,
2013-03-17 22:40:00,29.7,24.0,30.25,ENE,69,0.0,0.0,79,0.00,,,0.02,Wunderground v.1.15,2013-03-18 02:40:00,
2013-03-17 22:46:00,29.4,23.7,30.25,ENE,69,0.0,0.0,79,0.00,,,0.02,Wunderground v.1.15,2013-03-18 02:46:00,
2013-03-17 22:52:00,29.1,23.7,30.25,ENE,69,0.0,0.0,80,0.00,,,0.02,Wunderground v.1.15,2013-03-18 02:52:00,
2013-03-17 22:58:00,28.6,23.5,30.25,ENE,69,0.0,0.0,81,0.00,,,0.02,Wunderground v.1.15,2013-03-18 02:58:00,
2013-03-17 23:04:00,28.2,23.4,30.25,ENE,69,0.0,0.0,82,0.00,,,0.02,Wunderground v.1.15,2013-03-18 03:04:00,
2013-03-17 23:10:00,28.0,23.5,30.25,ENE,69,0.0,0.0,83,0.00,,,0.02,Wunderground v.1.15,2013-03-18 03:10:00,
2013-03-17 23:16:00,27.4,23.2,30.25,ENE,69,1.0,2.0,84,0.00,,,0.02,Wunderground v.1.15,2013-03-18 03:16:00,
2013-03-17 23:22:00,27.1,23.2,30.25,ENE,69,2.0,2.0,85,0.00,,,0.02,Wunderground v.1.15,2013-03-18 03:22:00,
2013-03-17 23:28:00,27.1,23.2,30.25,ENE,69,2.0,3.0,85,0.00,,,0.02,Wunderground v.1.15,2013-03-18 03:28:00,
2013-03-17 23:34:00,27.3,23.1,30.25,ENE,69,1.0,2.0,84,0.00,,,0.02,Wunderground v.1.15,2013-03-18 03:34:00,
2013-03-17 23:40:00,27.6,23.4,30.25,ENE,69,0.0,0.0,84,0.00,,,0.02,Wunderground v.1.15,2013-03-18 03:40:00,
2013-03-17 23:46:00,27.9,23.4,30.25,ENE,69,0.0,1.0,83,0.00,,,0.02,Wunderground v.1.15,2013-03-18 03:46:00,
2013-03-17 23:52:00,28.2,23.4,30.25,ENE,68,1.0,3.0,82,0.00,,,0.02,Wunderground v.1.15,2013-03-18 03:52:00,
2013-03-17 23:58:00,28.4,23.0,30.25,NE,54,2.0,3.0,80,0.00,,,0.02,Wunderground v.1.15,2013-03-18 03:58:00,